Bacolod, Philippines
Current Conditions -  °F | °C
As of 8:00 AM on Tuesday 21 Oct 2014 (Local Time) from RPVM Reporting Station
Scattered Clouds Scattered Clouds  
Wind Chill: 86°   Ceiling: Unl
Heat Index: 97°   Visibility: 6mi
Dew Point: 77°   Wind: 3mph
Humidity: 74%   Direction: 120°ESE
Pressure: 29.94"   Gusts: NA
Location:  10.63°N, 122.97°E
Report Text: RPVM 210000Z 12003KT 9999 FEW020 SCT300 30/25 Q1014 RMK A2994
Loading
Personal Weather Stations






























Interactive Weather Map New forecast layout! Learn more

10-Day Weather Forecast

Advertisements
Track Severe Weather on mobile